createdAt,value
2022-12-28T00:00:42.191Z,10.33
2022-12-28T00:04:44.368Z,8.27
2022-12-28T00:08:46.171Z,8.40
2022-12-28T00:12:47.912Z,9.00
2022-12-28T00:16:49.742Z,9.20
2022-12-28T00:21:01.616Z,10.57
2022-12-28T00:25:03.793Z,10.70
2022-12-28T00:29:05.994Z,13.77
2022-12-28T00:33:07.759Z,8.50
2022-12-28T00:37:13.241Z,10.60
2022-12-28T00:41:15.218Z,9.60
2022-12-28T00:45:18.070Z,10.13
2022-12-28T00:49:19.826Z,11.90
2022-12-28T00:53:21.654Z,10.80
2022-12-28T00:57:23.421Z,10.47
2022-12-28T01:01:27.095Z,13.47
2022-12-28T01:05:28.949Z,11.83
2022-12-28T01:09:30.733Z,11.37
2022-12-28T01:13:32.533Z,11.90
2022-12-28T01:17:34.265Z,10.90
2022-12-28T01:21:37.062Z,13.53
2022-12-28T01:25:38.947Z,12.83
2022-12-28T01:29:40.725Z,11.83
2022-12-28T01:33:42.812Z,13.90
2022-12-28T01:37:44.602Z,13.43
2022-12-28T01:41:46.618Z,12.20
2022-12-28T01:45:52.839Z,11.97
2022-12-28T01:50:01.364Z,11.17
2022-12-28T01:54:04.528Z,13.23
2022-12-28T01:58:13.913Z,12.90
2022-12-28T02:02:16.431Z,14.80
2022-12-28T02:06:18.460Z,13.40
2022-12-28T02:10:40.735Z,17.70
2022-12-28T02:14:45.115Z,12.00
2022-12-28T02:18:48.279Z,13.80
2022-12-28T02:22:59.463Z,12.00
2022-12-28T02:27:21.423Z,13.90
2022-12-28T02:31:50.440Z,16.17
2022-12-28T02:35:59.824Z,14.03
2022-12-28T02:40:25.041Z,11.53
2022-12-28T02:44:45.481Z,8.93
2022-12-28T02:49:06.231Z,9.80
2022-12-28T02:53:24.712Z,11.53
2022-12-28T02:57:48.102Z,10.83
2022-12-28T03:02:17.310Z,10.07
2022-12-28T03:06:57.915Z,10.53
2022-12-28T03:11:11.833Z,9.13
2022-12-28T03:15:37.994Z,12.97
2022-12-28T03:20:05.784Z,12.53
2022-12-28T03:24:28.712Z,13.57
2022-12-28T03:28:51.361Z,11.17
2022-12-28T03:32:55.296Z,12.87
2022-12-28T03:37:17.320Z,16.17
2022-12-28T03:41:28.383Z,14.90
2022-12-28T03:45:45.469Z,15.13
2022-12-28T03:49:48.842Z,15.37
2022-12-28T03:53:50.985Z,18.13
2022-12-28T03:57:56.851Z,15.40
2022-12-28T04:02:02.873Z,17.83
2022-12-28T04:06:07.788Z,21.30
2022-12-28T04:10:10.575Z,21.67
2022-12-28T04:14:12.394Z,21.53
2022-12-28T04:18:17.788Z,23.50
2022-12-28T04:22:19.555Z,28.07
2022-12-28T04:26:21.373Z,18.90
2022-12-28T04:30:26.121Z,21.10
2022-12-28T04:34:27.990Z,19.10
2022-12-28T04:38:43.138Z,22.07
2022-12-28T04:42:44.934Z,22.67
2022-12-28T04:46:46.830Z,24.47
2022-12-28T04:50:48.659Z,24.47
2022-12-28T04:54:50.797Z,20.13
2022-12-28T04:58:57.805Z,20.43
2022-12-28T05:03:00.310Z,25.00
2022-12-28T05:07:02.250Z,18.33
2022-12-28T05:11:06.355Z,17.93
2022-12-28T05:15:08.483Z,16.13
2022-12-28T05:19:10.263Z,15.53
2022-12-28T05:23:12.123Z,16.33
2022-12-28T05:27:13.880Z,16.00
2022-12-28T05:31:19.257Z,15.37
2022-12-28T05:35:21.066Z,16.10
2022-12-28T05:39:22.809Z,18.60
2022-12-28T05:43:24.629Z,16.60
2022-12-28T05:47:26.506Z,13.87
2022-12-28T05:51:30.890Z,14.50
2022-12-28T05:55:32.706Z,16.07
2022-12-28T05:59:34.721Z,18.87
2022-12-28T06:03:38.153Z,16.97
2022-12-28T06:07:40.250Z,17.80
2022-12-28T06:11:42.431Z,15.93
2022-12-28T06:15:44.297Z,18.23
2022-12-28T06:19:46.003Z,17.00
2022-12-28T06:23:48.253Z,16.33
2022-12-28T06:27:49.966Z,14.80
2022-12-28T06:31:53.861Z,17.80
2022-12-28T06:35:55.779Z,16.60
2022-12-28T06:39:57.513Z,17.93
2022-12-28T06:43:59.529Z,15.53
2022-12-28T06:48:01.369Z,15.80
2022-12-28T06:52:03.303Z,17.67
2022-12-28T06:56:14.683Z,18.53
2022-12-28T07:00:16.871Z,16.13
2022-12-28T07:04:18.675Z,26.03
2022-12-28T07:08:20.439Z,29.63
2022-12-28T07:12:22.436Z,25.17
2022-12-28T07:16:25.824Z,26.60
2022-12-28T07:20:27.720Z,23.97
2022-12-28T07:24:29.699Z,29.33
2022-12-28T07:28:31.431Z,24.90
2022-12-28T07:32:36.917Z,24.30
2022-12-28T07:36:38.845Z,25.10
2022-12-28T07:40:40.619Z,24.83
2022-12-28T07:44:48.674Z,28.73
2022-12-28T07:48:51.540Z,31.93
2022-12-28T07:52:53.251Z,25.60
2022-12-28T07:56:55.041Z,30.13
2022-12-28T08:01:18.377Z,24.97
2022-12-28T08:05:20.180Z,26.87
2022-12-28T08:09:21.972Z,26.93
2022-12-28T08:13:23.738Z,26.00
2022-12-28T08:17:25.736Z,27.73
2022-12-28T08:21:30.938Z,25.07
2022-12-28T08:25:34.703Z,26.17
2022-12-28T08:29:36.557Z,29.27
2022-12-28T08:33:39.101Z,31.63
2022-12-28T08:37:40.852Z,26.80
2022-12-28T08:41:42.695Z,28.03
2022-12-28T08:45:44.431Z,21.63
2022-12-28T08:49:46.271Z,21.77
2022-12-28T08:53:48.589Z,23.50
2022-12-28T08:57:50.348Z,19.73
2022-12-28T09:01:52.213Z,17.13
2022-12-28T09:05:54.707Z,17.13
2022-12-28T09:09:56.675Z,20.17
2022-12-28T09:13:58.443Z,14.43
2022-12-28T09:18:00.285Z,13.30
2022-12-28T09:22:02.040Z,11.73
2022-12-28T09:26:12.035Z,12.10
2022-12-28T09:30:14.701Z,15.77
2022-12-28T09:34:35.461Z,14.43
2022-12-28T09:38:38.427Z,11.60
2022-12-28T09:42:42.449Z,11.23
2022-12-28T09:46:50.134Z,9.53
2022-12-28T09:50:52.251Z,9.53
2022-12-28T09:54:55.009Z,11.03
2022-12-28T09:58:57.119Z,10.07
2022-12-28T10:03:18.346Z,10.90
2022-12-28T10:07:20.391Z,11.83
2022-12-28T10:11:47.797Z,9.07
2022-12-28T10:15:50.673Z,9.83
2022-12-28T10:19:54.684Z,8.50
2022-12-28T10:24:29.750Z,9.00
2022-12-28T10:28:22.350Z,8.33
2022-12-28T10:32:24.085Z,8.97
2022-12-28T10:36:31.579Z,7.33
2022-12-28T10:40:37.492Z,8.93
2022-12-28T10:44:40.835Z,8.07
2022-12-28T10:48:56.572Z,6.63
2022-12-28T10:52:58.760Z,6.63
2022-12-28T10:57:01.142Z,7.37
2022-12-28T11:01:15.218Z,6.23
2022-12-28T11:05:23.797Z,6.30
2022-12-28T11:09:30.824Z,7.03
2022-12-28T11:13:33.517Z,6.27
2022-12-28T11:17:37.817Z,6.27
2022-12-28T11:21:41.637Z,7.87
2022-12-28T11:25:43.592Z,7.20
2022-12-28T11:29:48.854Z,6.10
2022-12-28T11:33:56.489Z,7.47
2022-12-28T11:38:00.913Z,6.63
2022-12-28T11:42:37.180Z,5.37
2022-12-28T11:46:24.498Z,7.00
2022-12-28T11:50:38.482Z,7.23
2022-12-28T11:54:55.796Z,6.07
2022-12-28T11:59:04.202Z,6.30
2022-12-28T12:03:06.001Z,7.00
2022-12-28T12:07:20.100Z,6.30
2022-12-28T12:11:31.738Z,4.73
2022-12-28T12:15:41.436Z,5.40
2022-12-28T12:19:49.022Z,6.17
2022-12-28T12:23:55.744Z,5.63
2022-12-28T12:28:03.047Z,4.83
2022-12-28T12:32:16.989Z,6.53
2022-12-28T12:36:40.704Z,6.10
2022-12-28T12:41:19.465Z,5.03
2022-12-28T12:45:50.405Z,4.67
2022-12-28T12:50:35.098Z,4.23
2022-12-28T12:54:52.387Z,3.47
2022-12-28T12:59:21.727Z,4.90
2022-12-28T13:03:43.258Z,4.27
2022-12-28T13:07:45.574Z,5.23
2022-12-28T13:11:48.269Z,7.90
2022-12-28T13:15:50.121Z,5.37
2022-12-28T13:20:06.893Z,4.13
2022-12-28T13:24:45.798Z,4.00
2022-12-28T13:28:52.386Z,4.20
2022-12-28T13:32:57.834Z,5.57
2022-12-28T13:37:02.437Z,6.10
2022-12-28T13:41:06.951Z,24.60
2022-12-28T13:45:15.279Z,9.47
2022-12-28T13:49:19.611Z,7.27
2022-12-28T13:53:25.399Z,4.40
2022-12-28T13:57:46.657Z,3.87
2022-12-28T14:01:51.162Z,4.87
2022-12-28T14:06:01.937Z,7.90
2022-12-28T14:10:04.719Z,4.00
2022-12-28T14:14:07.124Z,5.37
2022-12-28T14:18:14.257Z,3.17
2022-12-28T14:22:33.781Z,3.73
2022-12-28T14:26:38.705Z,3.90
2022-12-28T14:30:42.149Z,5.17
2022-12-28T14:34:44.049Z,6.80
2022-12-28T14:38:48.526Z,6.60
2022-12-28T14:42:52.282Z,6.40
2022-12-28T14:46:54.902Z,7.03
2022-12-28T14:51:05.789Z,5.67
2022-12-28T14:55:32.106Z,4.73
2022-12-28T14:59:37.946Z,3.77
2022-12-28T15:03:55.953Z,3.30
2022-12-28T15:07:57.732Z,2.70
2022-12-28T15:12:11.577Z,3.87
2022-12-28T15:16:14.176Z,4.23
2022-12-28T15:20:17.583Z,4.50
2022-12-28T15:24:23.110Z,4.40
2022-12-28T15:28:26.263Z,3.93
2022-12-28T15:32:28.680Z,3.07
2022-12-28T15:36:30.469Z,6.03
2022-12-28T15:40:32.467Z,4.60
2022-12-28T15:44:34.334Z,4.47
2022-12-28T15:48:38.621Z,5.80
2022-12-28T15:52:42.089Z,4.20
2022-12-28T15:56:43.858Z,5.17
2022-12-28T16:00:47.651Z,4.50
2022-12-28T16:04:50.041Z,4.90
2022-12-28T16:08:56.367Z,5.43
2022-12-28T16:12:58.151Z,6.00
2022-12-28T16:17:00.117Z,9.93
2022-12-28T16:21:03.219Z,8.23
2022-12-28T16:25:05.448Z,9.70
2022-12-28T16:29:07.242Z,13.13
2022-12-28T16:33:09.054Z,13.30
2022-12-28T16:37:10.865Z,11.60
2022-12-28T16:41:12.747Z,10.53
2022-12-28T16:45:15.014Z,13.20
2022-12-28T16:49:17.410Z,13.87
2022-12-28T16:53:24.422Z,14.70
2022-12-28T16:57:26.606Z,20.07
2022-12-28T17:01:28.573Z,17.77
2022-12-28T17:05:35.550Z,15.67
2022-12-28T17:09:37.496Z,17.00
2022-12-28T17:13:39.539Z,14.10
2022-12-28T17:17:41.280Z,17.60
2022-12-28T17:21:43.040Z,15.57
2022-12-28T17:25:50.669Z,19.77
2022-12-28T17:29:52.517Z,20.63
2022-12-28T17:33:57.905Z,20.47
2022-12-28T17:37:59.748Z,21.63
2022-12-28T17:42:01.484Z,20.93
2022-12-28T17:46:03.822Z,17.93
2022-12-28T17:50:06.657Z,16.73
2022-12-28T17:54:10.796Z,16.90
2022-12-28T17:58:12.759Z,14.40
2022-12-28T18:02:14.772Z,13.30
2022-12-28T18:06:16.718Z,11.50
2022-12-28T18:10:18.549Z,38.77
2022-12-28T18:14:20.345Z,10.57
2022-12-28T18:18:22.538Z,15.50
2022-12-28T18:22:24.371Z,21.63
2022-12-28T18:26:27.240Z,32.67
2022-12-28T18:30:29.089Z,26.03
2022-12-28T18:34:30.890Z,59.67
2022-12-28T18:38:33.175Z,95.17
2022-12-28T18:42:35.200Z,96.10
2022-12-28T18:46:37.231Z,53.37
2022-12-28T18:50:39.023Z,29.03
2022-12-28T18:54:40.973Z,36.13
2022-12-28T18:58:43.315Z,31.17
2022-12-28T19:02:45.229Z,48.73
2022-12-28T19:06:47.302Z,41.50
2022-12-28T19:10:50.045Z,42.67
2022-12-28T19:14:51.803Z,40.07
2022-12-28T19:18:53.591Z,43.23
2022-12-28T19:22:55.343Z,44.97
2022-12-28T19:26:57.162Z,45.13
2022-12-28T19:31:04.609Z,44.97
2022-12-28T19:35:07.250Z,61.27
2022-12-28T19:39:09.115Z,59.90
2022-12-28T19:43:10.929Z,61.57
2022-12-28T19:47:12.828Z,51.93
2022-12-28T19:51:15.120Z,44.40
2022-12-28T19:55:16.946Z,39.53
2022-12-28T19:59:18.744Z,33.87
2022-12-28T20:03:20.752Z,31.60
2022-12-28T20:07:22.797Z,34.87
2022-12-28T20:11:25.115Z,33.90
2022-12-28T20:15:26.929Z,29.83
2022-12-28T20:19:28.721Z,35.17
2022-12-28T20:23:30.857Z,32.23
2022-12-28T20:27:32.590Z,36.30
2022-12-28T20:31:34.406Z,35.47
2022-12-28T20:35:36.222Z,31.20
2022-12-28T20:39:38.174Z,11.30
2022-12-28T20:43:39.998Z,11.10
2022-12-28T20:47:41.933Z,18.53
2022-12-28T20:51:43.756Z,14.20
2022-12-28T20:55:45.509Z,11.37
2022-12-28T20:59:47.277Z,10.27
2022-12-28T21:03:49.524Z,10.87
2022-12-28T21:07:51.639Z,13.80
2022-12-28T21:11:53.479Z,19.57
2022-12-28T21:15:55.784Z,18.47
2022-12-28T21:19:57.608Z,13.37
2022-12-28T21:24:01.307Z,10.83
2022-12-28T21:28:03.204Z,8.27
2022-12-28T21:32:05.259Z,7.27
2022-12-28T21:36:19.021Z,12.80
2022-12-28T21:40:20.944Z,12.53
2022-12-28T21:44:24.413Z,11.47
2022-12-28T21:48:26.671Z,7.97
2022-12-28T21:52:36.534Z,8.63
2022-12-28T21:56:39.282Z,5.73
2022-12-28T22:00:59.773Z,5.73
2022-12-28T22:05:20.637Z,7.73
2022-12-28T22:09:41.050Z,5.93
2022-12-28T22:13:42.829Z,7.53
2022-12-28T22:17:44.693Z,9.43
2022-12-28T22:21:46.545Z,10.70
2022-12-28T22:25:49.440Z,14.93
2022-12-28T22:29:51.224Z,14.73
2022-12-28T22:33:55.316Z,13.63
2022-12-28T22:37:57.249Z,12.27
2022-12-28T22:41:59.053Z,7.03
2022-12-28T22:46:06.278Z,7.93
2022-12-28T22:50:10.806Z,5.23
2022-12-28T22:54:12.552Z,8.87
2022-12-28T22:58:14.308Z,7.87
2022-12-28T23:02:16.373Z,8.17
2022-12-28T23:06:19.717Z,6.47
2022-12-28T23:10:21.865Z,5.70
2022-12-28T23:14:43.625Z,5.40
2022-12-28T23:19:03.847Z,7.13
2022-12-28T23:23:24.403Z,7.47
2022-12-28T23:27:33.781Z,13.23
2022-12-28T23:31:35.594Z,10.03
2022-12-28T23:35:37.712Z,8.80
2022-12-28T23:39:39.466Z,8.77
2022-12-28T23:43:41.202Z,8.60
2022-12-28T23:47:44.127Z,8.47
2022-12-28T23:51:46.711Z,8.63
2022-12-28T23:55:48.462Z,9.37
2022-12-28T23:59:50.248Z,7.47
